Current | Forecast
Updated: 11:16 AM JST on December 12, 2017
Observed at Tottori Airport, Japan
Temperature 34°F
Windchill 20°F
Humidity 65%
Dew Point 23°F
Wind WSW at 28 mph
Wind Gust 39 mph
Pressure 30.12 in (Steady)
Conditions Light Snow Showers
Visibility 3.1 miles
UV 2 out of 16
Clouds (FEW) : 1000 ft
Scattered Clouds (SCT) : 2000 ft
(FEW) : 2500 ft
Mostly Cloudy (BKN) : 3000 ft
Yesterday's Maximum 46°F
Yesterday's Minimum 36°F approx.
Yesterday's Heating Degree Days 24 approx.
Sunrise7:02 AM JST
Sunset4:50 PM JST
Moon Rise1:05 AM JST
Moon Set1:27 PM JST
Moon PhaseMoon Phase
Waning Crescent
Raw METARSPECI RJOR 120216Z 24024G34KT 5000 -SHSN FEW010 SCT020 FEW025CB BKN030 01/M05 Q1020 RMK 1CU010 3CU020 1CB025 5CU030 A3014 CB 5KM N MOV SE


Monday
. High: 75° F.
Tuesday
. High: 77° F.
Wednesday
. High: 73° F.
Thursday
. High: 78° F.
Friday
. High: 84° F.
Saturday
. High: 77° F.
Sunday
. High: 80° F.
Monday
. High: 82° F.

Units: English | Metric

Find the Weather for any City, State or Zipcode, or Country:

U.S. State List | Severe Weather | Tropical Storms | Ski Conditions
United States | Canada | Central America | South America | Asia | Europe | Australia | Africa | Islands

Weather Underground

© Copyright 2017
The Weather Company, LLC